Time;durP1;ratioP1;P1;durP2;ratioP2;P2;SDS_P1;SDS_P2;PMS_P1;PMS_P2;Temp;Humidity;BMP_temperature;BMP_pressure;BME280_temperature;BME280_humidity;BME280_pressure;Samples;Min_cycle;Max_cycle;Signal;HPM_P1;HPM_P2
2021/04/13 00:01:35;;;;;;;37.75;14.50;;;;;;;10.36;71.97;97446.16;5087471;28;20031;-87
2021/04/13 00:04:03;;;;;;;37.20;15.05;;;;;;;10.33;72.35;97448.09;5055773;28;20035;-87
2021/04/13 00:06:46;;;;;;;33.65;15.98;;;;;;;10.38;71.57;97438.91;5050443;28;20041;-87
2021/04/13 00:09:35;;;;;;;34.30;15.82;;;;;;;10.33;71.58;97436.53;5088490;28;20036;-87
2021/04/13 00:12:06;;;;;;;33.30;13.93;;;;;;;10.29;71.91;97433.19;5072021;28;20048;-86
2021/04/13 00:14:39;;;;;;;34.05;15.60;;;;;;;10.27;71.57;97427.06;5038884;28;20021;-87
2021/04/13 00:17:09;;;;;;;30.17;15.15;;;;;;;10.29;72.38;97427.84;5072013;28;20070;-87
2021/04/13 00:19:42;;;;;;;29.52;14.32;;;;;;;10.30;71.26;97426.88;5039042;28;20024;-87
2021/04/13 00:22:08;;;;;;;34.15;15.43;;;;;;;10.32;71.07;97427.66;5055638;28;20622;-87
2021/04/13 00:24:33;;;;;;;29.88;14.00;;;;;;;10.37;71.65;97438.03;5055149;28;20107;-87
2021/04/13 00:27:00;;;;;;;23.35;14.40;;;;;;;10.18;72.21;97411.59;5072228;28;20379;-87
2021/04/13 00:29:28;;;;;;;36.45;15.93;;;;;;;10.34;72.82;97433.75;5072294;28;20590;-87
2021/04/13 00:32:00;;;;;;;31.27;16.65;;;;;;;10.21;72.70;97426.63;5047465;28;20468;-87
2021/04/13 00:34:33;;;;;;;29.17;16.90;;;;;;;10.07;72.97;97395.34;5055643;28;20048;-87
2021/04/13 00:37:20;;;;;;;;;;;;;;;10.39;70.90;97422.78;5045833;28;20033;-86
2021/04/13 00:39:46;;;;;;;34.63;14.80;;;;;;;10.32;71.42;97427.66;5070355;28;19912;-87
2021/04/13 00:42:15;;;;;;;27.67;13.48;;;;;;;10.36;70.68;97422.09;5038244;28;20028;-87
2021/04/13 00:44:46;;;;;;;36.47;14.32;;;;;;;10.46;70.27;97423.25;5071891;28;20025;-86
2021/04/13 00:47:19;;;;;;;31.00;14.45;;;;;;;10.29;70.67;97379.72;5071921;28;20028;-87
2021/04/13 00:49:49;;;;;;;32.45;14.10;;;;;;;10.43;70.38;97421.59;5053701;28;20024;-86
2021/04/13 00:52:18;;;;;;;26.95;14.15;;;;;;;10.37;71.43;97397.09;5071981;28;20035;-88
2021/04/13 00:54:48;;;;;;;28.70;13.68;;;;;;;10.33;72.55;97424.03;5038447;28;20032;-87
2021/04/13 00:57:26;;;;;;;24.50;13.32;;;;;;;10.05;72.88;97397.28;5038640;28;20031;-87
2021/04/13 00:59:54;;;;;;;30.63;14.38;;;;;;;10.08;72.86;97383.72;5037436;28;20028;-87
2021/04/13 01:02:26;;;;;;;25.90;14.05;;;;;;;10.01;73.33;97393.06;5071474;28;20048;-88
2021/04/13 01:04:57;;;;;;;27.25;14.15;;;;;;;10.23;73.61;97430.91;5038866;28;20412;-87
2021/04/13 01:07:33;;;;;;;30.00;13.02;;;;;;;10.20;73.02;97428.41;5071025;28;20127;-87
2021/04/13 01:10:24;;;;;;;26.17;13.77;;;;;;;10.26;72.76;97424.50;5054616;28;20103;-87
2021/04/13 01:13:14;;;;;;;27.38;13.50;;;;;;;10.18;72.83;97430.31;5058147;28;20515;-87
2021/04/13 01:15:43;;;;;;;31.40;14.07;;;;;;;10.28;72.82;97441.28;5071542;28;20028;-87
2021/04/13 01:18:30;;;;;;;31.73;14.30;;;;;;;10.29;73.63;97435.88;5070970;28;20036;-87
2021/04/13 01:21:08;;;;;;;28.13;13.23;;;;;;;10.24;72.95;97437.94;5054438;28;20051;-87
2021/04/13 01:23:42;;;;;;;31.58;14.70;;;;;;;10.20;73.77;97432.91;5071190;28;20028;-86
2021/04/13 01:26:08;;;;;;;31.33;15.32;;;;;;;10.19;73.25;97437.38;5050043;28;20099;-87
2021/04/13 01:28:36;;;;;;;27.83;14.07;;;;;;;10.16;73.86;97421.53;5070552;28;20496;-85
2021/04/13 01:31:08;;;;;;;40.17;14.10;;;;;;;10.29;72.88;97432.31;5037750;28;20079;-86
2021/04/13 01:33:48;;;;;;;28.02;14.10;;;;;;;10.33;73.32;97433.88;5071710;28;20484;-86
2021/04/13 01:36:18;;;;;;;29.35;13.50;;;;;;;10.38;73.77;97436.22;5054138;28;20024;-86
2021/04/13 01:38:59;;;;;;;24.42;13.65;;;;;;;10.32;73.37;97413.41;5054010;28;20522;-86
2021/04/13 01:41:31;;;;;;;26.83;13.27;;;;;;;10.42;74.41;97429.75;5053267;28;20020;-86
2021/04/13 01:43:57;;;;;;;;;;;;;;;10.37;73.89;97418.50;5071501;28;20055;-86
2021/04/13 01:46:23;;;;;;;37.88;15.30;;;;;;;10.19;74.71;97416.00;5037401;28;19916;-86
2021/04/13 01:48:48;;;;;;;29.08;14.23;;;;;;;10.03;76.10;97409.03;5037234;28;20024;-86
2021/04/13 01:51:14;;;;;;;27.92;13.27;;;;;;;10.06;76.19;97408.81;5070592;28;20029;-86
2021/04/13 01:53:42;;;;;;;28.83;12.65;;;;;;;9.96;77.15;97407.66;5054111;28;20020;-86
2021/04/13 01:56:46;;;;;;;30.23;12.43;;;;;;;9.95;76.56;97406.81;5054032;28;20059;-87
2021/04/13 01:59:24;;;;;;;33.65;12.43;;;;;;;10.00;75.36;97410.03;5032613;28;20137;-87
2021/04/13 02:01:55;;;;;;;28.75;12.68;;;;;;;10.07;75.40;97399.84;5053680;28;20024;-87
2021/04/13 02:04:39;;;;;;;31.55;13.60;;;;;;;10.16;74.10;97402.81;5054405;28;20067;-87
2021/04/13 02:07:20;;;;;;;20.45;10.63;;;;;;;10.41;73.12;97409.31;5035904;28;20021;-87
2021/04/13 02:09:50;;;;;;;21.52;11.07;;;;;;;10.48;72.98;97406.16;5070292;28;20462;-87
2021/04/13 02:12:31;;;;;;;29.10;11.25;;;;;;;10.55;71.32;97396.75;5059971;28;20436;-87
2021/04/13 02:15:03;;;;;;;22.25;11.15;;;;;;;10.76;70.53;97410.59;5062058;28;20103;-87
2021/04/13 02:17:36;;;;;;;20.60;11.20;;;;;;;10.94;69.70;97417.41;5057933;28;20453;-87
2021/04/13 02:20:09;;;;;;;18.13;9.52;;;;;;;10.89;69.04;97396.28;5070508;28;20031;-87
2021/04/13 02:22:35;;;;;;;19.02;9.52;;;;;;;10.88;69.97;97399.94;5075022;28;20021;-87
2021/04/13 02:25:03;;;;;;;22.23;10.20;;;;;;;10.82;71.18;97410.19;5074574;28;20094;-87
2021/04/13 02:27:32;;;;;;;28.60;9.60;;;;;;;10.72;70.26;97401.91;5057496;28;20032;-87
2021/04/13 02:30:10;;;;;;;20.65;9.63;;;;;;;10.69;69.67;97390.53;5074184;28;20036;-87
2021/04/13 02:32:45;;;;;;;22.20;9.90;;;;;;;10.78;70.51;97405.97;5074396;28;20029;-87
2021/04/13 02:35:25;;;;;;;27.98;11.02;;;;;;;10.75;69.55;97398.16;5074334;28;20024;-87
2021/04/13 02:38:02;;;;;;;20.83;10.50;;;;;;;10.86;70.37;97406.31;5074253;28;20028;-87
2021/04/13 02:40:37;;;;;;;19.77;11.23;;;;;;;10.84;69.83;97408.25;5028450;28;20032;-87
2021/04/13 02:43:09;;;;;;;26.75;11.48;;;;;;;10.91;69.91;97414.94;5070435;28;20024;-87
2021/04/13 02:45:40;;;;;;;27.27;11.13;;;;;;;10.78;70.06;97400.63;5041128;28;20029;-87
2021/04/13 02:48:10;;;;;;;30.27;11.50;;;;;;;10.70;70.81;97406.50;5057487;28;20036;-90
2021/04/13 02:50:37;;;;;;;27.45;11.75;;;;;;;10.77;70.60;97397.09;5057787;28;20090;-87
2021/04/13 02:53:06;;;;;;;23.63;10.73;;;;;;;10.81;70.20;97403.09;5040179;28;20438;-86
2021/04/13 02:55:38;;;;;;;22.42;10.38;;;;;;;10.76;69.78;97398.06;5039669;28;20139;-88
2021/04/13 02:58:06;;;;;;;19.85;9.88;;;;;;;10.81;69.89;97416.47;5074243;28;20044;-88
2021/04/13 03:00:36;;;;;;;20.17;9.77;;;;;;;10.74;69.35;97397.28;5073726;28;20115;-88
2021/04/13 03:03:05;;;;;;;18.35;8.63;;;;;;;10.94;69.39;97414.72;5073559;28;21309;-88
2021/04/13 03:05:32;;;;;;;23.85;9.43;;;;;;;10.89;69.15;97392.75;5033773;28;20038;-88
2021/04/13 03:08:03;;;;;;;22.67;9.48;;;;;;;11.07;67.47;97417.47;5065306;28;20541;-88
2021/04/13 03:10:32;;;;;;;18.05;9.00;;;;;;;11.14;68.16;97424.97;5051477;28;20052;-87
2021/04/13 03:13:01;;;;;;;22.80;10.00;;;;;;;11.23;68.01;97423.50;5073253;28;20072;-88
2021/04/13 03:15:29;;;;;;;20.15;9.55;;;;;;;11.32;67.68;97426.44;5056864;28;20029;-88
2021/04/13 03:17:58;;;;;;;22.48;10.25;;;;;;;11.40;66.86;97423.25;5073095;28;20055;-88
2021/04/13 03:20:27;;;;;;;34.60;10.60;;;;;;;11.44;67.66;97430.97;5056646;28;20035;-88
2021/04/13 03:22:55;;;;;;;26.52;7.97;;;;;;;11.50;63.77;97420.81;5056147;28;20059;-87
2021/04/13 03:25:22;;;;;;;28.50;14.48;;;;;;;11.61;64.53;97426.28;5071828;28;20115;-87
2021/04/13 03:27:48;;;;;;;23.00;10.57;;;;;;;11.66;64.16;97429.53;5056202;28;20538;-87
2021/04/13 03:30:19;;;;;;;32.72;11.30;;;;;;;11.68;65.67;97438.31;5072935;28;20025;-87
2021/04/13 03:32:55;;;;;;;36.22;15.35;;;;;;;11.49;66.24;97421.75;5072951;28;20028;-87
2021/04/13 03:35:23;;;;;;;32.78;12.68;;;;;;;11.36;68.25;97438.66;5072402;28;20020;-85
2021/04/13 03:37:49;;;;;;;32.17;11.85;;;;;;;11.38;67.18;97436.72;5055543;28;20032;-87
2021/04/13 03:40:17;;;;;;;25.05;10.65;;;;;;;11.36;66.47;97433.31;5036444;28;20059;-87
2021/04/13 03:42:43;;;;;;;23.50;10.35;;;;;;;11.41;66.01;97431.16;5039814;28;20036;-87
2021/04/13 03:45:11;;;;;;;33.33;10.25;;;;;;;11.42;65.90;97440.06;5056783;28;20082;-86
2021/04/13 03:47:40;;;;;;;27.60;11.43;;;;;;;11.49;66.46;97448.53;5027276;28;20036;-87
2021/04/13 03:50:14;;;;;;;21.83;11.95;;;;;;;11.48;67.56;97446.81;5040088;28;20024;-86
2021/04/13 03:52:40;;;;;;;25.30;10.70;;;;;;;11.40;67.94;97434.81;5031791;28;20021;-86
2021/04/13 03:55:32;;;;;;;32.30;11.05;;;;;;;11.47;68.03;97448.66;5055881;28;20024;-86
2021/04/13 03:57:58;;;;;;;35.20;11.30;;;;;;;11.37;68.80;97440.38;5067579;28;20150;-87
2021/04/13 04:00:26;;;;;;;23.73;10.25;;;;;;;11.50;68.94;97456.50;5089351;28;20628;-87
2021/04/13 04:02:53;;;;;;;30.13;10.82;;;;;;;11.53;68.67;97450.94;5073416;28;20060;-74
2021/04/13 04:05:23;;;;;;;23.73;10.15;;;;;;;11.63;68.13;97451.19;5067775;28;20058;-87
2021/04/13 04:10:44;;;;;;;30.45;11.02;;;;;;;11.88;67.31;97459.25;5072446;28;20038;-87
2021/04/13 04:13:20;;;;;;;31.23;11.27;;;;;;;11.95;68.10;97461.44;5072410;28;20040;-87
2021/04/13 04:15:48;;;;;;;38.17;12.82;;;;;;;12.01;67.92;97452.09;5055436;28;20020;-87
2021/04/13 04:18:29;;;;;;;35.65;11.60;;;;;;;12.19;65.58;97449.97;5038585;28;20423;-87
2021/04/13 04:20:55;;;;;;;33.25;11.30;;;;;;;12.35;61.23;97450.59;5069209;28;20021;-86
2021/04/13 04:23:32;;;;;;;24.85;9.73;;;;;;;12.64;60.95;97443.19;5054734;28;20029;-86
2021/04/13 04:26:00;;;;;;;23.15;10.00;;;;;;;13.11;57.26;97448.66;5054779;28;20036;-87
2021/04/13 04:28:34;;;;;;;13.90;5.00;;;;;;;13.47;52.33;97453.13;5052541;28;20384;-86
2021/04/13 04:31:33;;;;;;;15.25;5.68;;;;;;;13.93;49.29;97455.88;5071703;28;20040;-86
2021/04/13 04:33:59;;;;;;;13.50;4.95;;;;;;;14.19;47.96;97452.00;5050791;28;20035;-87
2021/04/13 04:36:40;;;;;;;10.07;4.35;;;;;;;14.49;46.82;97459.53;5070874;28;20423;-87
2021/04/13 04:39:26;;;;;;;17.63;5.78;;;;;;;14.72;46.39;97455.03;5071267;28;20028;-87
2021/04/13 04:42:06;;;;;;;35.65;6.07;;;;;;;14.79;46.18;97446.34;5056138;28;20029;-86
2021/04/13 04:44:32;;;;;;;17.65;5.30;;;;;;;15.05;45.79;97465.78;5051609;28;20032;-87
2021/04/13 04:46:59;;;;;;;17.98;6.25;;;;;;;15.10;46.55;97450.09;5071481;28;20096;-87
2021/04/13 04:49:26;;;;;;;58.50;8.23;;;;;;;15.32;46.90;97473.47;5070974;28;20110;-87
2021/04/13 04:51:53;;;;;;;41.70;7.45;;;;;;;15.50;47.16;97470.13;5055250;28;20518;-87
2021/04/13 04:54:20;;;;;;;34.97;7.85;;;;;;;15.61;47.48;97467.38;5071165;28;20106;-86
2021/04/13 04:56:46;;;;;;;62.20;7.68;;;;;;;15.63;46.54;97464.56;5070932;28;20037;-85
2021/04/13 04:59:12;;;;;;;32.72;5.43;;;;;;;15.80;46.46;97465.84;5071554;28;20028;-89
2021/04/13 05:01:37;;;;;;;15.63;5.10;;;;;;;15.93;45.96;97471.94;5073941;28;20023;-88
2021/04/13 05:04:03;;;;;;;11.10;4.63;;;;;;;16.11;46.06;97473.06;5066351;28;20385;-87
2021/04/13 05:06:29;;;;;;;14.02;4.18;;;;;;;16.24;46.72;97471.03;5072630;28;20028;-88
2021/04/13 05:08:58;;;;;;;28.25;4.70;;;;;;;16.27;47.21;97455.41;5072774;28;20111;-91
2021/04/13 05:11:24;;;;;;;11.63;4.00;;;;;;;16.39;47.54;97460.75;5059452;28;20505;-76
2021/04/13 05:13:50;;;;;;;12.00;4.28;;;;;;;16.78;47.01;97463.53;5030005;28;20397;-75
2021/04/13 05:16:17;;;;;;;37.35;5.93;;;;;;;17.06;46.99;97461.09;5030248;28;20412;-75
2021/04/13 05:18:43;;;;;;;13.75;4.28;;;;;;;17.31;46.23;97457.91;5030296;28;20036;-75
2021/04/13 05:21:08;;;;;;;15.73;4.97;;;;;;;17.78;45.91;97457.13;5005450;28;20029;-76
2021/04/13 05:23:34;;;;;;;33.70;6.95;;;;;;;18.24;44.98;97452.84;5029548;28;20025;-77
2021/04/13 05:26:00;;;;;;;17.00;5.57;;;;;;;18.46;43.84;97457.09;5031590;28;20036;-87
2021/04/13 05:28:26;;;;;;;11.50;5.85;;;;;;;18.77;43.32;97453.16;5047203;28;20112;-86
2021/04/13 05:30:52;;;;;;;12.70;5.43;;;;;;;19.03;43.45;97450.66;5027942;28;20113;-87
2021/04/13 05:33:19;;;;;;;28.90;4.90;;;;;;;19.11;42.47;97458.88;5030758;28;20022;-88
2021/04/13 05:35:45;;;;;;;18.42;4.90;;;;;;;19.06;43.07;97455.75;5031594;28;20029;-87
2021/04/13 05:38:22;;;;;;;19.60;5.10;;;;;;;18.93;43.75;97448.81;5030952;28;20025;-87
2021/04/13 05:40:47;;;;;;;18.42;4.88;;;;;;;18.67;44.05;97461.31;5031032;28;20029;-87
2021/04/13 05:43:14;;;;;;;16.65;4.95;;;;;;;18.47;45.26;97465.06;5032425;28;20075;-87
2021/04/13 05:45:42;;;;;;;18.05;5.22;;;;;;;18.31;45.76;97459.38;5032068;28;20068;-87
2021/04/13 05:48:09;;;;;;;14.13;5.20;;;;;;;18.37;46.39;97453.38;5029763;28;20477;-87
2021/04/13 05:50:36;;;;;;;27.02;7.30;;;;;;;18.47;46.88;97454.22;5030096;28;20026;-87
2021/04/13 05:53:03;;;;;;;20.25;5.32;;;;;;;18.62;46.35;97443.81;5013965;28;20036;-87
2021/04/13 05:55:30;;;;;;;31.33;4.90;;;;;;;18.82;46.40;97449.03;5030432;28;20021;-87
2021/04/13 05:58:01;;;;;;;20.25;4.57;;;;;;;18.83;46.45;97439.00;5033470;28;20029;-87
2021/04/13 06:00:27;;;;;;;19.98;5.32;;;;;;;18.85;46.67;97437.88;5030797;28;20025;-87
2021/04/13 06:02:54;;;;;;;137.50;11.45;;;;;;;18.70;46.96;97442.06;5030775;28;20477;-87
2021/04/13 06:05:22;;;;;;;42.97;5.90;;;;;;;18.58;47.60;97443.25;5031276;28;20060;-87
2021/04/13 06:07:48;;;;;;;30.88;5.45;;;;;;;18.42;48.12;97440.28;5030966;28;20440;-87
2021/04/13 06:10:14;;;;;;;36.88;6.10;;;;;;;18.45;48.34;97445.41;5031148;28;20065;-88
2021/04/13 06:12:40;;;;;;;20.02;5.22;;;;;;;18.14;49.21;97446.59;5045018;28;20041;-87
2021/04/13 06:15:07;;;;;;;23.50;4.43;;;;;;;18.04;49.52;97440.31;5064028;28;20485;-87
2021/04/13 06:17:32;;;;;;;17.40;4.40;;;;;;;17.96;49.97;97448.31;5014122;28;20064;-87
2021/04/13 06:19:58;;;;;;;21.25;4.72;;;;;;;17.87;50.38;97441.91;5063722;28;20037;-86
2021/04/13 06:22:24;;;;;;;9.48;4.63;;;;;;;17.87;50.30;97440.03;5014650;28;20025;-86
2021/04/13 06:24:49;;;;;;;15.73;5.18;;;;;;;17.84;50.75;97437.63;5014450;28;20040;-86
2021/04/13 06:27:15;;;;;;;14.90;3.95;;;;;;;17.64;51.32;97443.16;5047299;28;20037;-86
2021/04/13 06:29:41;;;;;;;11.85;4.50;;;;;;;17.64;51.78;97446.72;5030779;28;20026;-86
2021/04/13 06:32:08;;;;;;;16.85;4.00;;;;;;;17.44;52.64;97442.28;5047042;28;20040;-86
2021/04/13 06:34:34;;;;;;;30.45;4.65;;;;;;;17.66;52.38;97452.84;5014784;28;20056;-86
2021/04/13 06:37:02;;;;;;;27.42;6.82;;;;;;;17.68;52.52;97431.94;5014128;28;20066;-86
2021/04/13 06:39:28;;;;;;;20.48;4.55;;;;;;;17.83;51.87;97427.81;5014491;28;20477;-87
2021/04/13 06:42:04;;;;;;;23.40;6.28;;;;;;;17.83;51.64;97460.28;5014222;28;20040;-88
2021/04/13 06:44:48;;;;;;;14.77;5.07;;;;;;;17.73;51.79;97450.44;5016240;28;20025;-87
2021/04/13 06:47:35;;;;;;;18.63;4.60;;;;;;;17.51;52.38;97456.06;5063595;28;20386;-87
2021/04/13 06:50:29;;;;;;;21.27;5.38;;;;;;;17.56;53.06;97456.56;5063940;28;20065;-87
2021/04/13 06:53:03;;;;;;;18.92;5.60;;;;;;;17.69;51.98;97455.28;5031217;28;20555;-87
2021/04/13 06:55:38;;;;;;;30.55;6.63;;;;;;;17.82;51.44;97452.28;5063987;28;20028;-87
2021/04/13 06:58:30;;;;;;;17.35;4.93;;;;;;;17.76;52.54;97451.00;5063669;28;20397;-87
2021/04/13 07:01:09;;;;;;;15.47;4.60;;;;;;;17.53;54.48;97457.66;5066138;28;20413;-87
2021/04/13 07:03:52;;;;;;;13.40;5.35;;;;;;;17.49;53.35;97458.94;5052948;28;20053;-87
2021/04/13 07:06:23;;;;;;;11.98;5.05;;;;;;;17.46;52.76;97461.06;5067190;28;20029;-87
2021/04/13 07:08:55;;;;;;;20.52;4.45;;;;;;;17.44;52.76;97452.22;5067781;28;20541;-88
2021/04/13 07:11:31;;;;;;;28.45;5.20;;;;;;;17.50;53.10;97457.94;5024133;28;20088;-87
2021/04/13 07:14:02;;;;;;;13.20;4.32;;;;;;;17.42;54.11;97465.88;5037801;28;20041;-87
2021/04/13 07:16:40;;;;;;;12.15;3.95;;;;;;;17.50;54.49;97462.50;5053908;28;20547;-87
2021/04/13 07:19:16;;;;;;;12.95;4.20;;;;;;;17.54;56.20;97459.34;5037079;28;20529;-87
2021/04/13 07:21:48;;;;;;;15.60;4.85;;;;;;;17.50;56.71;97452.53;5070771;28;20025;-87
2021/04/13 07:24:23;;;;;;;25.67;6.43;;;;;;;17.56;56.46;97460.13;5037038;28;20029;-87
2021/04/13 07:27:03;;;;;;;17.60;4.28;;;;;;;17.33;57.29;97448.66;5053688;28;20112;-87
2021/04/13 07:29:36;;;;;;;13.85;4.50;;;;;;;17.21;58.10;97443.50;5053124;28;20435;-87
2021/04/13 07:32:15;;;;;;;18.23;5.20;;;;;;;17.09;61.79;97447.31;5053825;28;20120;-87
2021/04/13 07:34:41;;;;;;;15.52;5.90;;;;;;;17.14;63.49;97440.47;5046161;28;20025;-87
2021/04/13 07:37:34;;;;;;;14.27;5.95;;;;;;;17.11;60.63;97442.59;5053548;28;20037;-87
2021/04/13 07:40:03;;;;;;;;;;;;;;;16.97;61.66;97448.41;5033386;28;20037;-87
2021/04/13 07:42:32;;;;;;;15.07;5.65;;;;;;;16.82;62.64;97444.38;5036605;28;20388;-88
2021/04/13 07:45:20;;;;;;;22.27;9.25;;;;;;;16.74;64.13;97445.88;5053262;28;20041;-87
2021/04/13 07:47:54;;;;;;;22.65;8.55;;;;;;;16.66;67.07;97432.22;5053543;28;20029;-87
2021/04/13 07:50:32;;;;;;;16.10;6.95;;;;;;;16.71;68.47;97435.34;5053562;28;20032;-87
2021/04/13 07:53:00;;;;;;;18.00;6.13;;;;;;;16.64;65.80;97419.84;5052836;28;20064;-87
2021/04/13 07:55:37;;;;;;;17.20;8.15;;;;;;;16.39;66.75;97440.00;5053861;28;20108;-87
2021/04/13 07:58:32;;;;;;;36.22;12.10;;;;;;;16.21;68.15;97447.00;5053124;28;20037;-88
2021/04/13 08:00:58;;;;;;;14.50;5.70;;;;;;;16.11;68.30;97440.66;5056220;28;20032;-87
2021/04/13 08:03:34;;;;;;;13.00;5.80;;;;;;;16.14;69.84;97441.28;5052934;28;20028;-87
2021/04/13 08:06:02;;;;;;;17.33;6.50;;;;;;;16.23;68.56;97436.91;5048422;28;20032;-87
2021/04/13 08:08:34;;;;;;;25.95;8.70;;;;;;;16.21;71.06;97452.41;5052206;28;20025;-88
2021/04/13 08:11:17;;;;;;;20.20;8.90;;;;;;;16.29;70.44;97441.78;5055781;28;20110;-88
2021/04/13 08:13:45;;;;;;;86.10;46.63;;;;;;;16.49;68.45;97438.19;5072836;28;20087;-88
2021/04/13 08:16:32;;;;;;;20.55;7.78;;;;;;;16.48;72.53;97425.69;5039364;28;20484;-88
2021/04/13 08:19:26;;;;;;;19.77;7.13;;;;;;;16.49;72.73;97440.06;5051850;28;20036;-89
2021/04/13 08:22:06;;;;;;;14.98;6.32;;;;;;;16.48;72.36;97447.31;5061761;28;20036;-86
2021/04/13 08:24:39;;;;;;;8.63;3.67;;;;;;;16.50;66.77;97429.09;5044803;28;20114;-87
2021/04/13 08:27:35;;;;;;;18.50;6.13;;;;;;;17.00;67.10;97426.50;5061374;28;20040;-86
2021/04/13 08:30:26;;;;;;;14.23;5.72;;;;;;;17.38;68.10;97434.69;5043703;28;20073;-87
2021/04/13 08:33:09;;;;;;;11.15;5.32;;;;;;;17.68;65.15;97433.78;5043400;28;20511;-88
2021/04/13 08:35:58;;;;;;;14.40;6.45;;;;;;;17.95;64.35;97431.22;5050752;28;20025;-87
2021/04/13 08:38:43;;;;;;;19.38;7.75;;;;;;;18.26;64.29;97418.34;5052111;28;20039;-90
2021/04/13 08:41:31;;;;;;;21.67;9.30;;;;;;;18.36;63.45;97430.84;5036903;28;20028;-88
2021/04/13 08:44:01;;;;;;;22.20;8.07;;;;;;;18.41;60.49;97423.16;5071440;28;20033;-88
2021/04/13 09:30:18;;;;;;;13.15;3.45;;;;;;;22.20;42.30;97378.16;5157551;27;20043;-79
2021/04/13 09:32:45;;;;;;;10.75;3.25;;;;;;;22.74;41.51;97381.16;5168534;27;20122;-79
2021/04/13 09:35:48;;;;;;;8.73;3.58;;;;;;;22.86;41.29;97387.94;5148835;27;20476;-79
2021/04/13 09:38:27;;;;;;;;;;;;;;;22.93;41.94;97380.75;5156997;27;20618;-79
2021/04/13 09:41:21;;;;;;;10.73;4.00;;;;;;;23.11;40.20;97374.03;5150272;27;19922;-79
2021/04/13 09:44:04;;;;;;;14.38;4.05;;;;;;;23.30;40.11;97374.63;5171387;27;20099;-79
2021/04/13 09:47:07;;;;;;;22.45;9.02;;;;;;;23.45;40.47;97372.88;5164229;27;20022;-79
2021/04/13 09:50:06;;;;;;;25.70;9.30;;;;;;;23.13;42.21;97368.41;5170336;27;20018;-83
2021/04/13 09:52:49;;;;;;;21.25;8.52;;;;;;;23.73;40.34;97361.25;5161548;27;20055;-77
2021/04/13 09:55:28;;;;;;;;;;;;;;;23.63;40.81;97368.84;5168451;27;20022;-78
2021/04/13 09:58:18;;;;;;;16.88;5.55;;;;;;;23.56;40.98;97361.56;5139056;27;19919;-79
2021/04/13 10:00:55;;;;;;;12.75;5.72;;;;;;;22.70;42.31;97364.31;5167079;27;20038;-79
2021/04/13 10:03:43;;;;;;;38.13;19.48;;;;;;;22.11;43.69;97358.25;5153244;27;20029;-78
2021/04/13 10:06:10;;;;;;;14.57;4.78;;;;;;;21.41;45.55;97346.06;5177109;27;20504;-75
2021/04/13 10:08:38;;;;;;;12.70;4.63;;;;;;;21.44;45.19;97337.56;5158974;27;20018;-78
2021/04/13 10:11:10;;;;;;;11.00;5.00;;;;;;;22.08;44.08;97341.41;5141853;27;21036;-78
2021/04/13 10:13:42;;;;;;;13.60;6.40;;;;;;;22.51;44.26;97340.13;5170779;27;20437;-79
2021/04/13 10:16:33;;;;;;;13.10;5.22;;;;;;;22.76;42.69;97344.53;5174430;27;20112;-77
2021/04/13 10:19:20;;;;;;;11.65;5.40;;;;;;;22.57;43.61;97343.00;5157958;27;20031;-78
2021/04/13 10:22:07;;;;;;;33.08;9.02;;;;;;;22.39;44.51;97338.81;5178135;27;20022;-78
2021/04/13 10:25:07;;;;;;;18.42;5.78;;;;;;;22.17;44.09;97334.06;5170237;27;20057;-78
2021/04/13 10:28:12;;;;;;;24.83;5.88;;;;;;;22.33;45.18;97323.13;5141794;27;20110;-79
2021/04/13 10:31:15;;;;;;;17.13;7.00;;;;;;;21.79;45.12;97308.34;5143338;27;20431;-78
2021/04/13 10:33:48;;;;;;;19.10;6.32;;;;;;;22.17;44.86;97312.25;5092282;28;20046;-81
2021/04/13 10:36:32;;;;;;;20.60;7.05;;;;;;;22.25;44.54;97315.81;5125174;27;20045;-77
2021/04/13 10:38:57;;;;;;;17.67;6.28;;;;;;;22.25;44.68;97309.50;5153721;27;20070;-79
2021/04/13 10:41:56;;;;;;;18.40;5.70;;;;;;;22.24;44.43;97310.56;5154958;27;20478;-79
2021/04/13 10:44:42;;;;;;;22.88;6.20;;;;;;;21.70;43.51;97307.50;5153287;27;20030;-78
2021/04/13 10:47:34;;;;;;;30.08;6.82;;;;;;;21.47;43.83;97298.31;5143123;27;20057;-78
2021/04/13 10:50:17;;;;;;;18.65;5.38;;;;;;;21.45;45.06;97305.75;5145139;27;20054;-79
2021/04/13 10:53:16;;;;;;;25.40;6.93;;;;;;;21.15;45.08;97306.41;5142612;27;20034;-79
2021/04/13 10:55:55;;;;;;;18.38;5.78;;;;;;;20.10;46.71;97287.72;5154635;27;20027;-79
2021/04/13 10:58:39;;;;;;;14.60;5.22;;;;;;;20.28;46.87;97298.53;5136206;27;20393;-79
2021/04/13 11:01:39;;;;;;;21.33;6.45;;;;;;;20.46;47.14;97304.75;5144832;27;20382;-79
2021/04/13 11:04:42;;;;;;;28.85;8.45;;;;;;;20.48;46.67;97305.44;5144531;27;20513;-80
2021/04/13 11:07:19;;;;;;;;;;;;;;;20.20;45.94;97298.47;5150166;27;20485;-80
2021/04/13 11:10:21;;;;;;;20.60;3.78;;;;;;;19.92;46.95;97289.63;5155334;27;19918;-80
2021/04/13 11:13:31;;;;;;;12.30;3.53;;;;;;;19.71;45.30;97300.00;5155179;27;20409;-80
2021/04/13 11:16:09;;;;;;;19.90;4.88;;;;;;;19.52;46.73;97311.88;5138505;27;20020;-79
2021/04/13 11:18:48;;;;;;;14.02;3.88;;;;;;;19.53;45.47;97308.16;5141009;27;20022;-76
2021/04/13 11:21:28;;;;;;;11.00;4.15;;;;;;;19.29;45.33;97297.88;5151717;27;20065;-86
2021/04/13 11:24:31;;;;;;;13.10;3.50;;;;;;;19.17;45.99;97300.97;5153984;27;20027;-85
2021/04/13 11:27:12;;;;;;;7.97;3.58;;;;;;;19.09;46.67;97303.63;5154356;27;20447;-87
2021/04/13 11:29:55;;;;;;;12.80;2.97;;;;;;;18.78;46.97;97312.09;5154056;27;20027;-86
2021/04/13 11:33:07;;;;;;;12.10;4.70;;;;;;;18.78;48.50;97306.69;5153544;27;20041;-85
2021/04/13 11:35:45;;;;;;;17.80;8.73;;;;;;;18.60;51.16;97305.78;5091181;27;20042;-85
2021/04/13 11:38:31;;;;;;;16.38;7.30;;;;;;;18.42;52.54;97294.88;5135530;27;20046;-86
2021/04/13 11:41:46;;;;;;;29.08;10.07;;;;;;;18.62;54.13;97303.75;5142159;27;20101;-86
2021/04/13 11:44:18;;;;;;;16.15;7.07;;;;;;;18.62;54.43;97292.94;5064651;27;20040;-86
2021/04/13 11:46:50;;;;;;;;;;;;;;;18.88;55.51;97298.50;5136897;27;20038;-86
2021/04/13 11:49:20;;;;;;;22.20;5.97;;;;;;;18.72;56.67;97291.03;5136486;27;19917;-86
2021/04/13 11:51:56;;;;;;;13.10;5.32;;;;;;;18.79;57.15;97294.84;5136439;27;20058;-86
2021/04/13 11:54:39;;;;;;;17.65;7.00;;;;;;;18.91;55.88;97290.91;5136164;27;20031;-85
2021/04/13 11:57:16;;;;;;;36.78;6.75;;;;;;;19.26;55.58;97300.06;5136462;27;20038;-86
2021/04/13 12:00:11;;;;;;;20.63;6.95;;;;;;;19.45;54.75;97302.66;5156176;27;20030;-87
2021/04/13 12:02:44;;;;;;;14.80;4.22;;;;;;;19.62;53.68;97296.38;5153276;27;20109;-86
2021/04/13 12:05:49;;;;;;;17.63;4.40;;;;;;;19.74;53.65;97297.81;5136026;27;20597;-86
2021/04/13 12:08:30;;;;;;;17.75;4.65;;;;;;;19.83;55.02;97296.88;5139573;27;20034;-86
2021/04/13 12:11:01;;;;;;;15.88;5.90;;;;;;;20.18;52.75;97292.34;5153417;27;20029;-86
2021/04/13 12:13:50;;;;;;;52.45;27.17;;;;;;;20.64;50.80;97296.53;5122772;27;20034;-85
2021/04/13 12:16:21;;;;;;;29.38;11.32;;;;;;;20.65;48.48;97296.34;5124527;27;20026;-86
2021/04/13 12:19:17;;;;;;;25.02;14.05;;;;;;;20.62;46.01;97282.22;5128181;27;20031;-86
2021/04/13 12:21:50;;;;;;;23.42;7.60;;;;;;;20.15;45.81;97279.91;5135745;27;20030;-87
2021/04/13 12:24:39;;;;;;;17.95;5.68;;;;;;;20.09;46.32;97285.16;5153241;27;20023;-87
2021/04/13 12:27:27;;;;;;;22.90;9.00;;;;;;;19.70;44.92;97282.00;5138463;27;20091;-88
2021/04/13 12:30:25;;;;;;;18.48;5.65;;;;;;;19.27;45.79;97280.06;5126343;27;20097;-86
2021/04/13 12:32:52;;;;;;;12.07;3.20;;;;;;;18.87;47.66;97278.66;5112917;27;20065;-86
2021/04/13 12:35:48;;;;;;;17.38;4.80;;;;;;;18.80;49.56;97282.13;5125709;27;20110;-85
2021/04/13 12:38:42;;;;;;;8.50;4.43;;;;;;;18.86;49.82;97281.50;5142223;27;20095;-86
2021/04/13 12:41:16;;;;;;;19.02;4.00;;;;;;;18.67;50.84;97281.66;5141254;27;20058;-86
2021/04/13 12:43:48;;;;;;;12.68;3.75;;;;;;;18.47;51.57;97267.31;5149740;27;20046;-87
2021/04/13 12:46:32;;;;;;;14.40;4.00;;;;;;;18.29;53.35;97267.25;5152474;27;20079;-86
2021/04/13 12:49:02;;;;;;;10.25;4.05;;;;;;;18.14;54.23;97267.91;5152521;27;20102;-86
2021/04/13 12:51:57;;;;;;;13.95;4.72;;;;;;;17.93;55.48;97267.25;5136133;27;20090;-86